Time;durP1;ratioP1;P1;durP2;ratioP2;P2;SDS_P1;SDS_P2;PMS_P1;PMS_P2;Temp;Humidity;BMP_temperature;BMP_pressure;BME280_temperature;BME280_humidity;BME280_pressure;Samples;Min_cycle;Max_cycle;Signal;HPM_P1;HPM_P2
2023/07/06 00:00:40;;;;;;;8.57;2.58;;;18.20;99.90;;;;;;5093613;28;20386;-66
2023/07/06 00:03:06;;;;;;;7.10;2.80;;;18.20;99.90;;;;;;5092716;28;20028;-66
2023/07/06 00:05:32;;;;;;;6.18;2.78;;;18.00;99.90;;;;;;5093333;28;20036;-66
2023/07/06 00:08:00;;;;;;;6.30;2.60;;;18.00;99.90;;;;;;5093258;28;20058;-66
2023/07/06 00:10:25;;;;;;;7.28;2.72;;;18.10;99.90;;;;;;5093191;28;20046;-66
2023/07/06 00:12:51;;;;;;;5.97;2.70;;;18.20;99.90;;;;;;5092227;28;20055;-66
2023/07/06 00:15:17;;;;;;;6.15;2.80;;;18.30;99.90;;;;;;5092871;28;20026;-64
2023/07/06 00:17:42;;;;;;;6.45;2.60;;;18.30;99.90;;;;;;5092803;28;20118;-66
2023/07/06 00:20:10;;;;;;;6.07;2.72;;;18.30;99.90;;;;;;5092945;28;20023;-65
2023/07/06 00:22:36;;;;;;;5.72;2.70;;;18.30;99.90;;;;;;5092615;28;20097;-66
2023/07/06 00:25:03;;;;;;;7.55;2.90;;;18.30;99.90;;;;;;5092960;28;20063;-66
2023/07/06 00:27:31;;;;;;;6.18;2.58;;;18.10;99.90;;;;;;5092843;28;20044;-64
2023/07/06 00:30:07;;;;;;;4.07;2.50;;;18.00;99.90;;;;;;5092642;28;20110;-66
2023/07/06 00:32:32;;;;;;;7.00;2.83;;;18.10;99.90;;;;;;5092473;28;20024;-66
2023/07/06 00:35:00;;;;;;;6.80;2.90;;;18.00;99.90;;;;;;5092746;28;20027;-66
2023/07/06 00:37:26;;;;;;;7.45;3.05;;;17.90;99.90;;;;;;5092685;28;20107;-66
2023/07/06 00:39:53;;;;;;;5.15;2.70;;;17.80;99.90;;;;;;5092784;28;20028;-66
2023/07/06 00:42:22;;;;;;;6.88;2.60;;;17.70;99.90;;;;;;5092551;28;20035;-66
2023/07/06 00:44:54;;;;;;;6.47;2.85;;;17.70;99.90;;;;;;5092238;28;20028;-65
2023/07/06 00:47:41;;;;;;;7.50;3.13;;;17.60;99.90;;;;;;5092294;28;20036;-66
2023/07/06 00:50:15;;;;;;;6.15;2.70;;;17.60;99.90;;;;;;5092307;28;20449;-66
2023/07/06 00:52:49;;;;;;;6.63;2.65;;;17.70;99.90;;;;;;5092277;28;20028;-66
2023/07/06 00:55:17;;;;;;;8.00;3.05;;;17.60;99.90;;;;;;5092245;28;20490;-66
2023/07/06 00:57:47;;;;;;;5.90;2.70;;;17.40;99.90;;;;;;5092279;28;20035;-66
2023/07/06 01:00:20;;;;;;;7.25;2.80;;;17.40;99.90;;;;;;5091729;28;20395;-66
2023/07/06 01:02:47;;;;;;;4.03;2.80;;;17.40;99.90;;;;;;5092189;28;20040;-66
2023/07/06 01:05:14;;;;;;;7.25;2.90;;;17.40;99.90;;;;;;5092158;28;20039;-66
2023/07/06 01:07:44;;;;;;;7.35;2.88;;;17.50;99.90;;;;;;5091916;28;20093;-67
2023/07/06 01:10:11;;;;;;;6.05;2.65;;;17.50;99.90;;;;;;5091936;28;20398;-66
2023/07/06 01:12:37;;;;;;;5.93;2.83;;;17.50;99.90;;;;;;5092085;28;20424;-66
2023/07/06 01:15:06;;;;;;;6.95;3.17;;;17.40;99.90;;;;;;5091806;28;20054;-66
2023/07/06 01:17:56;;;;;;;5.57;2.83;;;17.40;99.90;;;;;;5091830;28;20017;-66
2023/07/06 01:20:34;;;;;;;5.35;2.75;;;17.40;99.90;;;;;;5092314;28;20111;-66
2023/07/06 01:23:41;;;;;;;6.95;3.20;;;17.40;99.90;;;;;;5091296;28;20040;-66
2023/07/06 01:26:36;;;;;;;5.63;3.03;;;17.40;99.90;;;;;;5091060;28;20048;-66
2023/07/06 01:29:10;;;;;;;7.03;2.80;;;17.60;99.90;;;;;;5091809;28;20028;-64
2023/07/06 01:31:50;;;;;;;5.47;2.90;;;17.60;99.90;;;;;;5091673;28;20107;-66
2023/07/06 01:34:37;;;;;;;4.50;2.58;;;17.70;99.90;;;;;;5091625;28;20069;-65
2023/07/06 01:37:14;;;;;;;6.60;3.20;;;17.80;99.90;;;;;;5091432;28;20020;-66
2023/07/06 01:39:40;;;;;;;6.05;3.13;;;17.80;99.90;;;;;;5091436;28;20028;-66
2023/07/06 01:42:14;;;;;;;7.38;2.90;;;17.80;99.90;;;;;;5091382;28;20031;-66
2023/07/06 01:44:46;;;;;;;5.30;2.50;;;17.80;99.90;;;;;;5090740;28;20501;-65
2023/07/06 01:47:13;;;;;;;6.38;2.67;;;17.80;99.90;;;;;;5091438;28;20475;-66
2023/07/06 01:49:40;;;;;;;6.78;2.53;;;17.90;99.90;;;;;;5091267;28;20024;-66
2023/07/06 01:52:25;;;;;;;5.53;2.60;;;17.90;99.90;;;;;;5091250;28;20020;-65
2023/07/06 01:55:25;;;;;;;6.10;2.50;;;17.90;99.90;;;;;;5091291;28;20021;-65
2023/07/06 01:58:08;;;;;;;6.15;2.60;;;17.80;99.90;;;;;;5091036;28;20111;-66
2023/07/06 02:00:40;;;;;;;9.13;2.90;;;17.60;99.90;;;;;;5091241;28;20487;-66
2023/07/06 02:03:07;;;;;;;9.13;2.63;;;17.50;99.90;;;;;;5090681;28;20433;-65
2023/07/06 02:05:36;;;;;;;6.43;2.67;;;17.40;99.90;;;;;;5090633;28;20031;-66
2023/07/06 02:08:05;;;;;;;7.03;3.17;;;17.40;99.90;;;;;;5090436;28;20054;-65
2023/07/06 02:10:31;;;;;;;8.70;3.35;;;17.30;99.90;;;;;;5091274;28;20028;-66
2023/07/06 02:12:57;;;;;;;6.40;2.60;;;17.10;99.90;;;;;;5090603;28;20581;-66
2023/07/06 02:15:23;;;;;;;5.97;2.67;;;17.00;99.90;;;;;;5091217;28;20020;-66
2023/07/06 02:17:55;;;;;;;5.70;2.83;;;17.00;99.90;;;;;;5090850;28;20062;-66
2023/07/06 02:20:20;;;;;;;8.23;2.63;;;17.00;99.90;;;;;;5090976;28;20024;-66
2023/07/06 02:22:46;;;;;;;9.05;3.03;;;17.00;99.90;;;;;;5090854;28;20051;-66
2023/07/06 02:25:12;;;;;;;8.98;3.10;;;16.90;99.90;;;;;;5090884;28;20031;-66
2023/07/06 02:27:38;;;;;;;9.55;3.00;;;16.90;99.90;;;;;;5090143;28;20086;-66
2023/07/06 02:30:05;;;;;;;8.00;2.80;;;16.80;99.90;;;;;;5123787;28;20036;-66
2023/07/06 02:32:32;;;;;;;6.15;3.08;;;16.80;99.90;;;;;;5090685;28;20050;-66
2023/07/06 02:34:58;;;;;;;6.88;2.75;;;16.70;99.90;;;;;;5092252;28;20031;-66
2023/07/06 02:37:24;;;;;;;5.65;2.90;;;16.70;99.90;;;;;;5094815;28;20387;-65
2023/07/06 02:39:50;;;;;;;8.32;2.80;;;16.70;99.90;;;;;;5094643;28;20042;-66
2023/07/06 02:42:17;;;;;;;8.80;3.05;;;16.60;99.90;;;;;;5094538;28;20024;-66
2023/07/06 02:44:43;;;;;;;6.10;2.92;;;16.70;99.90;;;;;;5094948;28;20120;-66
2023/07/06 02:47:10;;;;;;;6.90;2.67;;;16.70;99.90;;;;;;5094843;28;20493;-66
2023/07/06 02:49:36;;;;;;;6.88;2.85;;;16.80;99.90;;;;;;5094579;28;20066;-66
2023/07/06 02:52:02;;;;;;;6.15;3.00;;;16.80;99.90;;;;;;5094714;28;20024;-65
2023/07/06 02:54:28;;;;;;;8.63;3.15;;;16.90;99.90;;;;;;5094535;28;20020;-66
2023/07/06 02:56:56;;;;;;;8.25;2.63;;;17.10;99.90;;;;;;5094230;28;20026;-66
2023/07/06 02:59:21;;;;;;;7.28;2.92;;;17.20;99.90;;;;;;5094738;28;20028;-66
2023/07/06 03:01:47;;;;;;;6.47;2.83;;;17.10;99.90;;;;;;5094529;28;20486;-66
2023/07/06 03:04:15;;;;;;;7.30;2.90;;;17.20;99.90;;;;;;5094412;28;20111;-66
2023/07/06 03:06:41;;;;;;;7.97;2.92;;;17.20;99.90;;;;;;5094219;28;20038;-66
2023/07/06 03:09:09;;;;;;;6.88;2.88;;;17.20;99.90;;;;;;5094346;28;20024;-66
2023/07/06 03:11:36;;;;;;;5.93;2.50;;;17.20;99.90;;;;;;5094335;28;20593;-65
2023/07/06 03:14:02;;;;;;;5.88;2.70;;;17.20;99.90;;;;;;5094144;28;20016;-65
2023/07/06 03:16:29;;;;;;;6.70;2.78;;;17.30;99.90;;;;;;5094220;28;20070;-66
2023/07/06 03:18:55;;;;;;;9.02;3.00;;;17.20;99.90;;;;;;5094269;28;20028;-66
2023/07/06 03:21:21;;;;;;;7.10;3.10;;;17.00;99.90;;;;;;5093853;28;20542;-66
2023/07/06 03:23:49;;;;;;;5.40;2.30;;;16.90;99.90;;;;;;5094102;28;20506;-66
2023/07/06 03:26:15;;;;;;;6.50;2.60;;;16.90;99.90;;;;;;5093493;28;20032;-66
2023/07/06 03:28:41;;;;;;;7.22;2.60;;;16.90;99.90;;;;;;5093935;28;20028;-66
2023/07/06 03:31:07;;;;;;;7.43;2.47;;;16.80;99.90;;;;;;5093982;28;20370;-66
2023/07/06 03:33:33;;;;;;;6.15;2.67;;;16.80;99.90;;;;;;5093732;28;20028;-66
2023/07/06 03:35:58;;;;;;;7.72;2.88;;;16.80;99.90;;;;;;5094146;28;20031;-66
2023/07/06 03:38:27;;;;;;;5.95;2.45;;;16.70;99.90;;;;;;5093837;28;20070;-66
2023/07/06 03:40:54;;;;;;;9.15;2.80;;;16.70;99.90;;;;;;5093588;28;20028;-66
2023/07/06 03:43:20;;;;;;;6.75;2.70;;;16.70;99.90;;;;;;5093645;28;20031;-64
2023/07/06 03:45:47;;;;;;;6.82;3.00;;;16.80;99.90;;;;;;5093588;28;20027;-66
2023/07/06 03:48:15;;;;;;;6.70;2.60;;;16.70;99.90;;;;;;5093572;28;20028;-66
2023/07/06 03:50:41;;;;;;;6.35;2.70;;;16.70;99.90;;;;;;5093466;28;20056;-66
2023/07/06 03:53:07;;;;;;;6.90;2.72;;;16.60;99.90;;;;;;5093640;28;20406;-66
2023/07/06 03:55:33;;;;;;;9.77;3.13;;;16.60;99.90;;;;;;5093480;28;20032;-66
2023/07/06 03:58:00;;;;;;;7.93;2.90;;;16.60;99.90;;;;;;5093457;28;20083;-66
2023/07/06 04:00:28;;;;;;;6.47;2.75;;;16.60;99.90;;;;;;5093525;28;20077;-66
2023/07/06 04:02:56;;;;;;;6.30;2.97;;;16.80;99.90;;;;;;5093632;28;20081;-66
2023/07/06 04:05:31;;;;;;;4.68;2.47;;;16.90;99.90;;;;;;5093240;28;20156;-66
2023/07/06 04:07:58;;;;;;;6.00;2.90;;;17.00;99.90;;;;;;5093001;28;20039;-66
2023/07/06 04:10:24;;;;;;;7.72;2.92;;;17.10;99.90;;;;;;5093261;28;20028;-66
2023/07/06 04:12:50;;;;;;;7.20;2.88;;;17.20;99.90;;;;;;5093081;28;20028;-66
2023/07/06 04:15:20;;;;;;;7.10;2.72;;;17.30;99.90;;;;;;5092028;28;20048;-66
2023/07/06 04:17:52;;;;;;;5.45;2.67;;;17.30;99.90;;;;;;5092890;28;20394;-66
2023/07/06 04:20:29;;;;;;;7.10;3.10;;;17.30;99.90;;;;;;5091610;28;20035;-66
2023/07/06 04:22:57;;;;;;;11.57;3.33;;;17.30;99.90;;;;;;5093004;28;20052;-66
2023/07/06 04:25:29;;;;;;;7.68;2.53;;;17.30;99.90;;;;;;5092695;28;20107;-67
2023/07/06 04:27:56;;;;;;;5.63;2.85;;;17.30;99.90;;;;;;5092828;28;20032;-66
2023/07/06 04:30:22;;;;;;;6.65;2.63;;;17.30;99.90;;;;;;5092796;28;20012;-66
2023/07/06 04:32:49;;;;;;;7.32;2.83;;;17.10;99.90;;;;;;5092927;28;20047;-64
2023/07/06 04:35:17;;;;;;;6.47;2.80;;;17.00;99.90;;;;;;5092663;28;20042;-66
2023/07/06 04:37:48;;;;;;;6.57;2.92;;;16.90;99.90;;;;;;5092413;28;20028;-66
2023/07/06 04:40:18;;;;;;;5.50;2.60;;;16.80;99.90;;;;;;5092573;28;20028;-66
2023/07/06 04:42:45;;;;;;;5.50;2.80;;;16.70;99.90;;;;;;5092838;28;20024;-66
2023/07/06 04:45:12;;;;;;;6.10;2.78;;;16.60;99.90;;;;;;5092420;28;20024;-66
2023/07/06 04:47:39;;;;;;;5.25;2.90;;;16.60;99.90;;;;;;5092480;28;20143;-65
2023/07/06 04:50:17;;;;;;;10.27;3.47;;;16.60;99.90;;;;;;5092328;28;20028;-66
2023/07/06 04:52:45;;;;;;;6.30;2.88;;;16.60;99.90;;;;;;5092053;28;20055;-66
2023/07/06 04:55:12;;;;;;;8.82;3.28;;;16.60;99.90;;;;;;5092488;28;20027;-67
2023/07/06 04:57:38;;;;;;;5.50;3.00;;;16.60;99.90;;;;;;5091726;28;20032;-66
2023/07/06 05:00:17;;;;;;;6.63;2.65;;;16.60;99.90;;;;;;5092204;28;20099;-66
2023/07/06 05:02:43;;;;;;;7.53;2.92;;;16.50;99.90;;;;;;5092448;28;20020;-66
2023/07/06 05:05:11;;;;;;;6.93;2.97;;;16.50;99.90;;;;;;5092039;28;20038;-66
2023/07/06 05:07:38;;;;;;;6.38;2.90;;;16.60;99.90;;;;;;5091523;28;20044;-66
2023/07/06 05:10:05;;;;;;;5.55;2.97;;;16.50;99.90;;;;;;5092419;28;20023;-66
2023/07/06 05:12:30;;;;;;;8.32;3.10;;;16.60;99.90;;;;;;5091923;28;20027;-66
2023/07/06 05:14:56;;;;;;;5.15;2.83;;;16.60;99.90;;;;;;5091868;28;20548;-67
2023/07/06 05:17:21;;;;;;;5.88;2.92;;;16.60;99.90;;;;;;5091697;28;20032;-66
2023/07/06 05:19:47;;;;;;;5.78;3.35;;;16.60;99.90;;;;;;5092125;28;20449;-66
2023/07/06 05:22:15;;;;;;;7.50;2.95;;;16.70;99.90;;;;;;5091264;28;20032;-66
2023/07/06 05:24:41;;;;;;;6.25;2.95;;;16.80;99.90;;;;;;5091927;28;20111;-66
2023/07/06 05:27:06;;;;;;;7.35;3.05;;;17.00;99.90;;;;;;5090446;28;20115;-66
2023/07/06 05:29:32;;;;;;;6.10;2.83;;;17.10;99.90;;;;;;5091619;28;20028;-66
2023/07/06 05:31:59;;;;;;;6.85;3.40;;;17.30;99.90;;;;;;5091677;28;20055;-66
2023/07/06 05:34:24;;;;;;;9.32;3.60;;;17.40;99.90;;;;;;5091568;28;20552;-65
2023/07/06 05:36:50;;;;;;;8.63;3.30;;;17.50;99.90;;;;;;5091185;28;20032;-66
2023/07/06 05:39:16;;;;;;;9.02;2.92;;;17.50;99.90;;;;;;5091800;28;20135;-66
2023/07/06 05:41:43;;;;;;;9.23;3.40;;;17.50;99.90;;;;;;5090464;28;20117;-65
2023/07/06 05:44:09;;;;;;;6.53;2.75;;;17.60;99.90;;;;;;5091389;28;20036;-63
2023/07/06 05:46:35;;;;;;;8.00;3.40;;;17.60;99.90;;;;;;5091403;28;20035;-65
2023/07/06 05:49:00;;;;;;;7.22;3.08;;;17.60;99.90;;;;;;5091400;28;20016;-65
2023/07/06 05:51:26;;;;;;;6.38;3.22;;;17.60;99.90;;;;;;5091100;28;20402;-65
2023/07/06 05:53:52;;;;;;;5.93;2.95;;;17.50;99.90;;;;;;5091438;28;20032;-65
2023/07/06 05:56:21;;;;;;;7.15;3.40;;;17.50;99.90;;;;;;5091479;28;20827;-64
2023/07/06 05:58:47;;;;;;;7.40;3.63;;;17.40;99.90;;;;;;5091204;28;20028;-65
2023/07/06 06:01:13;;;;;;;6.95;3.15;;;17.30;99.90;;;;;;5091351;28;20421;-65
2023/07/06 06:03:40;;;;;;;5.60;2.95;;;17.30;99.90;;;;;;5091322;28;20035;-64
2023/07/06 06:06:07;;;;;;;6.22;3.22;;;17.30;99.90;;;;;;5090800;28;20612;-65
2023/07/06 06:08:33;;;;;;;8.38;3.50;;;17.20;99.90;;;;;;5091384;28;20047;-65
2023/07/06 06:11:00;;;;;;;5.93;3.15;;;17.20;99.90;;;;;;5094374;28;20028;-65
2023/07/06 06:13:27;;;;;;;12.15;4.38;;;17.10;99.90;;;;;;5095490;28;20036;-65
2023/07/06 06:15:53;;;;;;;8.68;3.28;;;17.10;99.90;;;;;;5095211;28;20021;-65
2023/07/06 06:18:18;;;;;;;9.20;3.20;;;17.10;99.90;;;;;;5095173;28;20028;-65
2023/07/06 06:20:44;;;;;;;7.10;4.10;;;17.10;99.90;;;;;;5094974;28;20553;-66
2023/07/06 06:23:13;;;;;;;8.07;4.20;;;17.20;99.90;;;;;;5094117;28;20568;-65
2023/07/06 06:25:38;;;;;;;6.53;4.60;;;17.20;99.90;;;;;;5094929;28;20020;-66
2023/07/06 06:28:09;;;;;;;9.20;4.20;;;17.40;99.90;;;;;;5094706;28;20591;-65
2023/07/06 06:30:38;;;;;;;8.43;3.78;;;17.50;99.90;;;;;;5095180;28;20024;-66
2023/07/06 06:33:04;;;;;;;7.15;3.20;;;17.60;99.90;;;;;;5094080;28;20031;-67
2023/07/06 06:35:33;;;;;;;9.43;3.58;;;17.60;99.90;;;;;;5095326;28;20016;-67
2023/07/06 06:38:03;;;;;;;7.35;3.10;;;17.60;99.90;;;;;;5095161;28;20076;-66
2023/07/06 06:40:29;;;;;;;6.68;3.35;;;17.70;99.90;;;;;;5094922;28;20039;-67
2023/07/06 06:42:55;;;;;;;5.78;2.88;;;18.00;99.90;;;;;;5094998;28;20032;-66
2023/07/06 06:45:21;;;;;;;8.40;3.08;;;18.20;99.90;;;;;;5094518;28;20154;-66
2023/07/06 06:47:47;;;;;;;6.68;3.08;;;18.30;99.90;;;;;;5094757;28;20089;-66
2023/07/06 06:50:19;;;;;;;7.38;3.05;;;18.40;99.90;;;;;;5094725;28;20027;-67
2023/07/06 06:52:46;;;;;;;5.72;2.97;;;18.60;99.90;;;;;;5094603;28;20525;-66
2023/07/06 06:55:12;;;;;;;6.47;2.80;;;18.80;99.90;;;;;;5094588;28;20055;-66
2023/07/06 06:57:38;;;;;;;8.48;2.80;;;18.80;99.90;;;;;;5093783;28;20028;-66
2023/07/06 07:00:06;;;;;;;6.20;2.75;;;18.70;99.90;;;;;;5093834;28;20036;-67
2023/07/06 07:02:32;;;;;;;5.72;2.90;;;18.80;99.90;;;;;;5093880;28;20028;-66
2023/07/06 07:05:00;;;;;;;8.27;3.17;;;18.80;99.90;;;;;;5094514;28;20024;-67
2023/07/06 07:07:27;;;;;;;8.63;3.35;;;18.90;99.90;;;;;;5094243;28;20035;-65
2023/07/06 07:09:53;;;;;;;8.52;3.00;;;18.90;99.90;;;;;;5094295;28;20494;-65
2023/07/06 07:12:19;;;;;;;11.15;3.45;;;18.80;99.90;;;;;;5094315;28;20035;-65
2023/07/06 07:14:45;;;;;;;7.60;3.03;;;18.80;99.90;;;;;;5093979;28;20023;-65
2023/07/06 07:17:13;;;;;;;6.70;2.83;;;18.70;99.90;;;;;;5093366;28;20024;-66
2023/07/06 07:19:39;;;;;;;7.25;3.05;;;18.60;99.90;;;;;;5094009;28;20035;-65
2023/07/06 07:22:05;;;;;;;8.85;3.00;;;18.70;99.90;;;;;;5093654;28;20032;-65
2023/07/06 07:24:32;;;;;;;7.43;3.50;;;18.70;99.90;;;;;;5094152;28;20130;-66
2023/07/06 07:27:00;;;;;;;6.57;3.10;;;18.90;99.90;;;;;;5093818;28;20035;-66
2023/07/06 07:29:26;;;;;;;11.93;3.72;;;19.00;99.90;;;;;;5093955;28;20028;-66
2023/07/06 07:31:51;;;;;;;54.72;7.80;;;19.10;99.90;;;;;;5092459;28;20514;-65
2023/07/06 07:34:18;;;;;;;21.73;4.20;;;19.10;99.90;;;;;;5094108;28;20027;-65
2023/07/06 07:36:44;;;;;;;6.95;3.17;;;19.00;99.90;;;;;;5094220;28;20032;-66
2023/07/06 07:39:11;;;;;;;9.57;2.97;;;19.10;99.90;;;;;;5094196;28;20024;-65
2023/07/06 07:41:37;;;;;;;17.23;3.95;;;19.00;99.90;;;;;;5093735;28;20119;-66
2023/07/06 07:44:04;;;;;;;19.33;4.60;;;19.10;99.90;;;;;;5092314;28;20368;-65
2023/07/06 07:46:30;;;;;;;17.25;3.85;;;19.30;99.90;;;;;;5093541;28;20024;-64
2023/07/06 07:48:56;;;;;;;10.18;3.35;;;19.30;99.90;;;;;;5093738;28;20035;-66
2023/07/06 07:51:25;;;;;;;13.13;3.40;;;19.40;99.90;;;;;;5093641;28;20020;-66
2023/07/06 07:53:54;;;;;;;10.15;3.53;;;19.50;99.90;;;;;;5092547;28;20035;-66
2023/07/06 07:56:21;;;;;;;7.93;3.15;;;19.40;99.90;;;;;;5093457;28;20503;-65
2023/07/06 07:58:48;;;;;;;11.07;3.22;;;19.50;99.90;;;;;;5093319;28;20110;-65
2023/07/06 08:01:16;;;;;;;9.18;3.40;;;19.80;99.90;;;;;;5092843;28;20028;-66
2023/07/06 08:03:43;;;;;;;6.90;2.95;;;20.10;99.90;;;;;;5092941;28;20028;-66
2023/07/06 08:06:10;;;;;;;10.30;3.08;;;20.10;99.90;;;;;;5092630;28;20044;-66
2023/07/06 08:08:38;;;;;;;7.00;2.70;;;20.20;99.90;;;;;;5093160;28;20027;-66
2023/07/06 08:11:10;;;;;;;6.80;3.20;;;20.30;99.90;;;;;;5093090;28;20537;-65
2023/07/06 08:13:36;;;;;;;6.57;2.78;;;20.30;99.90;;;;;;5093334;28;20020;-64
2023/07/06 08:16:03;;;;;;;7.45;2.95;;;20.30;99.90;;;;;;5092467;28;20080;-66
2023/07/06 08:18:30;;;;;;;9.90;2.70;;;20.30;99.90;;;;;;5093372;28;20036;-66
2023/07/06 08:20:57;;;;;;;6.32;2.75;;;20.40;99.90;;;;;;5093056;28;20035;-66
2023/07/06 08:23:25;;;;;;;7.15;3.05;;;20.50;99.90;;;;;;5092733;28;20794;-66
2023/07/06 08:25:54;;;;;;;4.50;2.47;;;20.50;99.90;;;;;;5092658;28;20042;-66
2023/07/06 08:28:24;;;;;;;5.28;2.63;;;20.40;99.90;;;;;;5092446;28;20418;-66
2023/07/06 08:30:51;;;;;;;7.90;2.80;;;20.30;99.90;;;;;;5092436;28;20028;-67
2023/07/06 08:33:20;;;;;;;6.03;2.67;;;20.30;99.90;;;;;;5091162;28;20024;-66
2023/07/06 08:35:47;;;;;;;6.32;2.70;;;20.20;99.90;;;;;;5092721;28;20032;-66
2023/07/06 08:38:13;;;;;;;7.00;2.60;;;20.20;99.90;;;;;;5092498;28;20032;-66
2023/07/06 08:40:41;;;;;;;6.68;2.92;;;20.20;99.90;;;;;;5092768;28;20547;-67
2023/07/06 08:43:15;;;;;;;6.00;3.00;;;20.30;99.90;;;;;;5092799;28;20024;-67
2023/07/06 08:45:44;;;;;;;5.97;3.22;;;20.10;99.90;;;;;;5092331;28;20028;-66
2023/07/06 08:48:18;;;;;;;8.15;2.70;;;20.20;99.90;;;;;;5092505;28;20410;-66
2023/07/06 08:50:51;;;;;;;5.57;3.00;;;20.20;99.90;;;;;;5092393;28;20081;-65
2023/07/06 08:53:18;;;;;;;6.10;3.08;;;20.10;99.90;;;;;;5092426;28;20024;-65
2023/07/06 08:55:45;;;;;;;6.97;2.78;;;20.20;99.90;;;;;;5092364;28;20398;-65
2023/07/06 08:58:26;;;;;;;7.63;2.97;;;20.30;99.90;;;;;;5091877;28;20016;-66
2023/07/06 09:00:59;;;;;;;6.35;2.90;;;20.40;99.90;;;;;;5092260;28;20553;-66
2023/07/06 09:03:26;;;;;;;8.27;3.00;;;20.50;99.90;;;;;;5092593;28;20028;-66
2023/07/06 09:05:53;;;;;;;7.38;2.72;;;20.50;99.90;;;;;;5092088;28;20089;-66
2023/07/06 09:08:19;;;;;;;6.00;2.75;;;20.50;99.90;;;;;;5092042;28;20039;-66
2023/07/06 09:10:47;;;;;;;4.95;2.90;;;20.40;99.90;;;;;;5091803;28;20032;-66
2023/07/06 09:13:22;;;;;;;7.03;2.80;;;20.50;99.90;;;;;;5091671;28;20023;-66
2023/07/06 09:15:48;;;;;;;8.02;3.30;;;20.60;99.90;;;;;;5092043;28;20024;-67
2023/07/06 09:18:15;;;;;;;4.35;2.38;;;20.90;99.90;;;;;;5091838;28;20028;-66
2023/07/06 09:20:44;;;;;;;9.75;3.03;;;21.00;99.90;;;;;;5092243;28;20027;-66
2023/07/06 09:23:14;;;;;;;8.75;2.75;;;21.20;99.90;;;;;;5091544;28;20076;-66
2023/07/06 09:25:44;;;;;;;8.48;2.92;;;21.30;99.90;;;;;;5091291;28;20114;-67
2023/07/06 09:28:18;;;;;;;7.93;2.80;;;21.40;99.90;;;;;;5091645;28;20036;-66
2023/07/06 09:30:44;;;;;;;7.35;2.70;;;21.40;99.90;;;;;;5091635;28;20036;-65
2023/07/06 09:33:18;;;;;;;8.07;3.40;;;21.60;99.90;;;;;;5091468;28;20028;-64
2023/07/06 09:35:43;;;;;;;5.47;2.70;;;21.80;99.90;;;;;;5091764;28;20028;-66
2023/07/06 09:38:14;;;;;;;6.82;2.80;;;21.80;99.90;;;;;;5091420;28;20024;-65
2023/07/06 09:40:43;;;;;;;6.65;2.70;;;21.80;99.90;;;;;;5091360;28;20398;-66
2023/07/06 09:43:23;;;;;;;6.03;3.13;;;21.80;99.90;;;;;;5090888;28;20032;-66
2023/07/06 09:45:51;;;;;;;4.80;2.78;;;21.90;99.90;;;;;;5091602;28;20032;-66
2023/07/06 09:48:30;;;;;;;8.75;3.10;;;22.00;99.90;;;;;;5091376;28;20093;-65
2023/07/06 09:51:13;;;;;;;6.13;3.03;;;21.90;99.90;;;;;;5091297;28;20095;-65
2023/07/06 09:53:49;;;;;;;5.35;2.45;;;21.60;99.90;;;;;;5091082;28;20115;-65
2023/07/06 09:56:15;;;;;;;7.80;2.95;;;21.70;99.90;;;;;;5090715;28;20028;-65
2023/07/06 09:58:42;;;;;;;8.75;2.80;;;21.60;99.90;;;;;;5091191;28;20103;-66
2023/07/06 10:01:49;;;;;;;6.47;2.55;;;21.60;99.90;;;;;;5091270;28;20046;-66
2023/07/06 10:04:36;;;;;;;6.15;2.60;;;21.60;99.90;;;;;;5028566;28;20033;-67
2023/07/06 10:07:15;;;;;;;6.43;2.65;;;21.70;99.90;;;;;;5028731;28;20041;-66
2023/07/06 10:09:49;;;;;;;4.35;2.40;;;21.80;99.90;;;;;;5028525;28;20399;-67
2023/07/06 10:12:32;;;;;;;9.45;2.78;;;21.90;99.90;;;;;;5028245;28;20045;-67
2023/07/06 10:15:05;;;;;;;7.10;2.88;;;22.00;99.90;;;;;;5028937;28;20152;-67
2023/07/06 10:17:38;;;;;;;15.77;10.00;;;21.90;99.90;;;;;;5028679;28;20036;-67
2023/07/06 10:20:17;;;;;;;16.23;10.20;;;22.00;99.90;;;;;;5028765;28;20041;-65
2023/07/06 10:23:34;;;;;;;6.25;4.10;;;22.10;99.90;;;;;;5028422;28;20429;-67
2023/07/06 10:26:29;;;;;;;8.45;3.97;;;22.10;99.90;;;;;;4988657;28;20042;-67
2023/07/06 10:29:01;;;;;;;7.05;2.70;;;22.10;99.90;;;;;;4989425;28;20093;-67
2023/07/06 10:31:51;;;;;;;4.77;2.50;;;22.00;99.90;;;;;;4989286;28;20045;-66
2023/07/06 10:34:38;;;;;;;4.70;2.38;;;22.00;99.90;;;;;;4989171;28;20344;-66
2023/07/06 10:37:05;;;;;;;4.38;2.35;;;22.30;99.90;;;;;;4989618;28;20187;-67
2023/07/06 10:39:31;;;;;;;4.72;2.60;;;22.60;99.90;;;;;;5048092;28;20029;-67
2023/07/06 10:42:02;;;;;;;4.65;2.50;;;22.70;99.90;;;;;;5048641;28;20132;-67
2023/07/06 10:44:46;;;;;;;5.38;2.50;;;22.80;99.90;;;;;;5048506;28;20044;-67
2023/07/06 10:47:44;;;;;;;4.85;2.47;;;23.10;99.90;;;;;;5048258;28;20093;-67
2023/07/06 10:50:26;;;;;;;5.45;2.20;;;23.40;99.90;;;;;;5048202;28;20037;-67
2023/07/06 10:53:43;;;;;;;4.07;2.33;;;23.50;99.90;;;;;;5048326;28;20152;-67
2023/07/06 10:56:12;;;;;;;3.67;2.30;;;23.50;99.90;;;;;;4990197;28;20042;-67
2023/07/06 10:58:59;;;;;;;5.45;2.67;;;23.40;99.90;;;;;;4992567;28;20053;-67
2023/07/06 11:01:34;;;;;;;5.15;2.47;;;23.60;99.90;;;;;;5009714;28;20097;-67
2023/07/06 11:04:02;;;;;;;6.25;2.75;;;23.70;99.90;;;;;;5031979;28;20068;-67
2023/07/06 11:06:42;;;;;;;5.65;2.50;;;23.70;99.90;;;;;;5031617;28;20530;-67
2023/07/06 11:09:16;;;;;;;5.03;2.50;;;23.50;99.90;;;;;;5031587;28;20079;-67
2023/07/06 11:11:48;;;;;;;6.15;2.53;;;23.40;99.90;;;;;;5031735;28;20393;-67
2023/07/06 11:14:33;;;;;;;4.72;2.65;;;23.40;99.90;;;;;;5031689;28;20033;-67
2023/07/06 11:17:36;;;;;;;4.45;2.70;;;23.40;99.90;;;;;;5031456;28;20030;-67
2023/07/06 11:20:04;;;;;;;5.20;2.47;;;23.40;99.90;;;;;;5031630;28;20526;-66
2023/07/06 11:22:32;;;;;;;4.18;2.55;;;23.40;99.90;;;;;;5031475;28;20396;-68
2023/07/06 11:25:04;;;;;;;6.18;2.80;;;23.40;99.90;;;;;;5031197;28;20064;-67
2023/07/06 11:27:34;;;;;;;5.25;2.70;;;23.50;99.90;;;;;;5031363;28;20034;-67
2023/07/06 11:30:32;;;;;;;4.22;2.33;;;23.50;99.90;;;;;;5031448;28;20029;-67
2023/07/06 11:33:09;;;;;;;4.82;2.55;;;23.60;99.90;;;;;;5070474;28;20044;-67
2023/07/06 11:36:15;;;;;;;6.32;2.55;;;23.60;99.90;;;;;;5073592;28;20065;-67
2023/07/06 11:39:22;;;;;;;4.15;2.47;;;23.60;99.90;;;;;;5066140;28;20040;-67
2023/07/06 11:41:56;;;;;;;4.07;2.40;;;24.00;99.90;;;;;;5031159;28;20041;-67
2023/07/06 11:44:46;;;;;;;4.50;2.50;;;24.00;99.90;;;;;;5031581;28;20029;-67
2023/07/06 11:47:30;;;;;;;6.15;2.70;;;23.90;99.90;;;;;;5031025;28;20048;-68
2023/07/06 11:49:59;;;;;;;3.78;2.70;;;24.10;99.90;;;;;;5031372;28;20021;-67
2023/07/06 11:52:32;;;;;;;7.10;2.63;;;24.20;99.90;;;;;;5030541;28;20491;-67
2023/07/06 11:55:50;;;;;;;4.00;2.30;;;24.30;99.90;;;;;;5030993;28;20483;-67
2023/07/06 11:57:54;;;;;;;4.28;2.42;;;24.40;99.90;;;;;;5024296;28;20381;-67
2023/07/06 12:03:00;;;;;;;3.92;2.53;;;24.80;99.90;;;;;;5030868;28;20037;-67
2023/07/06 12:05:30;;;;;;;6.88;2.47;;;24.90;99.90;;;;;;5030676;28;20124;-67
2023/07/06 12:07:58;;;;;;;4.38;2.40;;;25.00;99.90;;;;;;5030398;28;20125;-67
2023/07/06 12:10:24;;;;;;;4.80;2.40;;;25.20;99.90;;;;;;5030739;28;20025;-67
2023/07/06 12:12:52;;;;;;;3.08;2.17;;;25.20;99.90;;;;;;5031018;28;20049;-67
2023/07/06 12:15:21;;;;;;;5.18;2.38;;;25.40;99.90;;;;;;5030696;28;20633;-66
2023/07/06 12:17:56;;;;;;;3.58;2.03;;;25.40;99.90;;;;;;5037220;28;20066;-67
2023/07/06 12:20:25;;;;;;;3.45;2.30;;;25.40;99.90;;;;;;5072659;28;20087;-67
2023/07/06 12:22:56;;;;;;;4.47;2.28;;;25.50;99.90;;;;;;5072582;28;20446;-67
2023/07/06 12:25:25;;;;;;;5.28;2.05;;;25.80;99.90;;;;;;5072594;28;20044;-66
2023/07/06 12:28:00;;;;;;;3.25;2.05;;;25.90;99.90;;;;;;5071199;28;20071;-66
2023/07/06 12:30:33;;;;;;;3.28;2.20;;;26.20;99.90;;;;;;5072552;28;20020;-66
2023/07/06 12:33:13;;;;;;;4.22;2.08;;;26.20;99.90;;;;;;5072576;28;20032;-66
2023/07/06 12:35:40;;;;;;;4.05;1.92;;;26.10;99.90;;;;;;5072331;28;20045;-66
2023/07/06 12:38:11;;;;;;;3.50;1.90;;;25.90;99.90;;;;;;5072307;28;20077;-66
2023/07/06 12:40:38;;;;;;;4.57;2.00;;;25.90;99.90;;;;;;5072345;28;20033;-66
2023/07/06 12:43:04;;;;;;;2.25;1.92;;;25.90;99.90;;;;;;5072395;28;20462;-67
2023/07/06 12:45:31;;;;;;;2.50;2.10;;;25.90;99.90;;;;;;5072382;28;20036;-66
2023/07/06 12:48:03;;;;;;;2.88;2.00;;;25.80;99.90;;;;;;5072127;28;20045;-66
2023/07/06 12:50:39;;;;;;;3.25;2.15;;;25.90;99.90;;;;;;5071785;28;20526;-67
2023/07/06 12:53:13;;;;;;;3.28;1.92;;;25.90;99.90;;;;;;5072140;28;20029;-67
2023/07/06 12:55:44;;;;;;;2.53;1.92;;;25.90;99.90;;;;;;5072552;28;20402;-67
2023/07/06 12:58:28;;;;;;;3.97;1.98;;;25.90;99.90;;;;;;5071995;28;20033;-67
2023/07/06 13:01:03;;;;;;;3.03;1.88;;;26.00;99.90;;;;;;5071966;28;20017;-67
2023/07/06 13:03:30;;;;;;;4.35;2.10;;;25.70;99.90;;;;;;5071792;28;20032;-66
2023/07/06 13:05:56;;;;;;;5.57;2.00;;;25.90;99.90;;;;;;5071322;28;20561;-66